DFGKC EDXW-EDDH
Flight info
| Callsign | DFGKC |
|---|---|
| Flight time | 0h 51m |
| Altitude | 7000 |
| Route | OLDIP1B OLDIP DCT BADOS DCT OMWEG/N0178F080 DCT RIBSO RIBSO3P |
| Aircraft | C208/L-SDFGR/C |
Departure
| Time | 2026-04-26 15:37 |
|---|---|
| Airport | Westerland Sylt Airport (EDXW) |
Arrival
| Time | 2026-04-26 16:28 |
|---|---|
| Airport | Hamburg Helmut Schmidt Airport (EDDH) |
| Time | Latitude | Longitude | Altitude | Speed | Heading |
|---|---|---|---|---|---|
| 2026-04-26 15:18 | 54.91294 | 8.32482 | 38 ft | 0 kts | 251° |
| 2026-04-26 15:29 | 54.91276 | 8.32466 | 38 ft | 9 kts | 160° |
| 2026-04-26 15:29 | 54.91170 | 8.32619 | 37 ft | 10 kts | 139° |
| 2026-04-26 15:30 | 54.91078 | 8.32796 | 37 ft | 10 kts | 107° |
| 2026-04-26 15:30 | 54.91051 | 8.32911 | 37 ft | 10 kts | 117° |
| 2026-04-26 15:30 | 54.91008 | 8.33008 | 38 ft | 10 kts | 132° |
| 2026-04-26 15:31 | 54.90962 | 8.33090 | 38 ft | 9 kts | 137° |
| 2026-04-26 15:31 | 54.90841 | 8.33201 | 38 ft | 10 kts | 165° |
| 2026-04-26 15:31 | 54.90772 | 8.33220 | 38 ft | 10 kts | 175° |
| 2026-04-26 15:32 | 54.90657 | 8.33236 | 38 ft | 10 kts | 176° |
| 2026-04-26 15:32 | 54.90564 | 8.33250 | 38 ft | 10 kts | 174° |
| 2026-04-26 15:32 | 54.90495 | 8.33276 | 38 ft | 10 kts | 163° |
| 2026-04-26 15:33 | 54.90431 | 8.33326 | 38 ft | 10 kts | 151° |
| 2026-04-26 15:33 | 54.90345 | 8.33445 | 38 ft | 27 kts | 130° |
| 2026-04-26 15:33 | 54.90262 | 8.33733 | 38 ft | 26 kts | 102° |
| 2026-04-26 15:33 | 54.90237 | 8.34034 | 39 ft | 24 kts | 94° |
| 2026-04-26 15:34 | 54.90253 | 8.34314 | 39 ft | 22 kts | 79° |
| 2026-04-26 15:34 | 54.90280 | 8.34571 | 39 ft | 21 kts | 79° |
| 2026-04-26 15:34 | 54.90305 | 8.34812 | 39 ft | 20 kts | 79° |
| 2026-04-26 15:34 | 54.90326 | 8.35012 | 39 ft | 11 kts | 79° |
| 2026-04-26 15:35 | 54.90335 | 8.35058 | 39 ft | 0 kts | 57° |
| 2026-04-26 15:35 | 54.90339 | 8.35071 | 39 ft | 13 kts | 57° |
| 2026-04-26 15:35 | 54.90411 | 8.35169 | 40 ft | 11 kts | 345° |
| 2026-04-26 15:36 | 54.90434 | 8.35148 | 40 ft | 0 kts | 324° |
| 2026-04-26 15:36 | 54.90527 | 8.35030 | 40 ft | 51 kts | 324° |
| 2026-04-26 15:36 | 54.90958 | 8.34500 | 104 ft | 88 kts | 324° |
| 2026-04-26 15:36 | 54.91458 | 8.33881 | 382 ft | 93 kts | 323° |
| 2026-04-26 15:37 | 54.92017 | 8.33221 | 611 ft | 101 kts | 323° |
| 2026-04-26 15:37 | 54.92610 | 8.32523 | 810 ft | 105 kts | 323° |
| 2026-04-26 15:37 | 54.93228 | 8.31792 | 1011 ft | 114 kts | 323° |
| 2026-04-26 15:37 | 54.93913 | 8.30974 | 1214 ft | 124 kts | 323° |
| 2026-04-26 15:38 | 54.94632 | 8.30101 | 1387 ft | 129 kts | 324° |
| 2026-04-26 15:38 | 54.95374 | 8.29191 | 1553 ft | 132 kts | 323° |
| 2026-04-26 15:38 | 54.96127 | 8.28258 | 1700 ft | 135 kts | 323° |
| 2026-04-26 15:38 | 54.96898 | 8.27299 | 1845 ft | 136 kts | 323° |
| 2026-04-26 15:39 | 54.97667 | 8.26337 | 2006 ft | 136 kts | 323° |
| 2026-04-26 15:39 | 54.98429 | 8.25361 | 2167 ft | 136 kts | 316° |
| 2026-04-26 15:39 | 54.98722 | 8.23853 | 2312 ft | 139 kts | 266° |
| 2026-04-26 15:39 | 54.98612 | 8.22755 | 2424 ft | 139 kts | 261° |
| 2026-04-26 15:40 | 54.98058 | 8.20716 | 2637 ft | 143 kts | 236° |
| 2026-04-26 15:40 | 54.97410 | 8.19405 | 2800 ft | 142 kts | 233° |
| 2026-04-26 15:40 | 54.96794 | 8.18055 | 2953 ft | 143 kts | 236° |
| 2026-04-26 15:40 | 54.96203 | 8.16671 | 3104 ft | 142 kts | 237° |
| 2026-04-26 15:41 | 54.95622 | 8.15277 | 3272 ft | 142 kts | 238° |
| 2026-04-26 15:41 | 54.95044 | 8.13889 | 3428 ft | 141 kts | 236° |
| 2026-04-26 15:41 | 54.94277 | 8.12815 | 3577 ft | 145 kts | 209° |
| 2026-04-26 15:41 | 54.93285 | 8.12424 | 3732 ft | 150 kts | 183° |
| 2026-04-26 15:42 | 54.92266 | 8.12858 | 3887 ft | 154 kts | 155° |
| 2026-04-26 15:42 | 54.91406 | 8.13988 | 4039 ft | 156 kts | 142° |
| 2026-04-26 15:42 | 54.90562 | 8.15174 | 4199 ft | 156 kts | 143° |
| 2026-04-26 15:42 | 54.89720 | 8.16373 | 4359 ft | 157 kts | 142° |
| 2026-04-26 15:43 | 54.88879 | 8.17571 | 4512 ft | 157 kts | 142° |
| 2026-04-26 15:43 | 54.88036 | 8.18774 | 4671 ft | 157 kts | 142° |
| 2026-04-26 15:43 | 54.86349 | 8.21169 | 4984 ft | 157 kts | 142° |
| 2026-04-26 15:44 | 54.85550 | 8.22303 | 5132 ft | 157 kts | 143° |
| 2026-04-26 15:44 | 54.84347 | 8.24009 | 5350 ft | 157 kts | 142° |
| 2026-04-26 15:44 | 54.83503 | 8.25203 | 5502 ft | 156 kts | 142° |
| 2026-04-26 15:45 | 54.81761 | 8.27432 | 5809 ft | 155 kts | 151° |
| 2026-04-26 15:45 | 54.80846 | 8.28426 | 5962 ft | 156 kts | 150° |
| 2026-04-26 15:46 | 54.79003 | 8.30448 | 6272 ft | 157 kts | 149° |
| 2026-04-26 15:46 | 54.78076 | 8.31463 | 6430 ft | 158 kts | 149° |
| 2026-04-26 15:46 | 54.77144 | 8.32479 | 6583 ft | 158 kts | 149° |
| 2026-04-26 15:46 | 54.76527 | 8.33155 | 6692 ft | 159 kts | 149° |
| 2026-04-26 15:47 | 54.75277 | 8.34518 | 6891 ft | 159 kts | 149° |
| 2026-04-26 15:47 | 54.73401 | 8.36563 | 7182 ft | 159 kts | 149° |
| 2026-04-26 15:47 | 54.72461 | 8.37585 | 7324 ft | 160 kts | 149° |
| 2026-04-26 15:48 | 54.71495 | 8.38638 | 7346 ft | 168 kts | 149° |
| 2026-04-26 15:48 | 54.70488 | 8.39731 | 7356 ft | 173 kts | 149° |
| 2026-04-26 15:48 | 54.69458 | 8.40855 | 7355 ft | 177 kts | 149° |
| 2026-04-26 15:48 | 54.68505 | 8.42195 | 7349 ft | 179 kts | 127° |
| 2026-04-26 15:49 | 54.67942 | 8.44102 | 7352 ft | 178 kts | 110° |
| 2026-04-26 15:49 | 54.67480 | 8.46097 | 7356 ft | 179 kts | 111° |
| 2026-04-26 15:49 | 54.67010 | 8.48096 | 7353 ft | 180 kts | 110° |
| 2026-04-26 15:49 | 54.66539 | 8.50095 | 7351 ft | 180 kts | 110° |
| 2026-04-26 15:50 | 54.66069 | 8.52099 | 7349 ft | 180 kts | 110° |
| 2026-04-26 15:50 | 54.65596 | 8.54100 | 7352 ft | 180 kts | 110° |
| 2026-04-26 15:50 | 54.65124 | 8.56106 | 7349 ft | 180 kts | 111° |
| 2026-04-26 15:50 | 54.64651 | 8.58107 | 7347 ft | 180 kts | 111° |
| 2026-04-26 15:51 | 54.64178 | 8.60112 | 7346 ft | 180 kts | 111° |
| 2026-04-26 15:51 | 54.63711 | 8.62092 | 7344 ft | 180 kts | 111° |
| 2026-04-26 15:51 | 54.63236 | 8.64092 | 7346 ft | 180 kts | 111° |
| 2026-04-26 15:51 | 54.62762 | 8.66094 | 7343 ft | 180 kts | 111° |
| 2026-04-26 15:52 | 54.62281 | 8.68126 | 7343 ft | 180 kts | 111° |
| 2026-04-26 15:52 | 54.61786 | 8.70114 | 7338 ft | 180 kts | 118° |
| 2026-04-26 15:52 | 54.60968 | 8.71743 | 7336 ft | 180 kts | 136° |
| 2026-04-26 15:52 | 54.60380 | 8.72756 | 7336 ft | 180 kts | 134° |
| 2026-04-26 15:53 | 54.59210 | 8.74837 | 7338 ft | 181 kts | 135° |
| 2026-04-26 15:53 | 54.58329 | 8.76387 | 7336 ft | 181 kts | 135° |
| 2026-04-26 15:53 | 54.57446 | 8.77935 | 7340 ft | 181 kts | 135° |
| 2026-04-26 15:53 | 54.56562 | 8.79484 | 7339 ft | 181 kts | 135° |
| 2026-04-26 15:54 | 54.55677 | 8.81034 | 7339 ft | 181 kts | 135° |
| 2026-04-26 15:54 | 54.54804 | 8.82563 | 7335 ft | 181 kts | 135° |
| 2026-04-26 15:54 | 54.53918 | 8.84114 | 7337 ft | 182 kts | 135° |
| 2026-04-26 15:54 | 54.53031 | 8.85665 | 7335 ft | 182 kts | 135° |
| 2026-04-26 15:55 | 54.52143 | 8.87217 | 7334 ft | 182 kts | 135° |
| 2026-04-26 15:55 | 54.51254 | 8.88771 | 7337 ft | 183 kts | 135° |
| 2026-04-26 15:55 | 54.50358 | 8.90333 | 7334 ft | 184 kts | 135° |
| 2026-04-26 15:55 | 54.49460 | 8.91898 | 7332 ft | 184 kts | 135° |
| 2026-04-26 15:56 | 54.48564 | 8.93463 | 7334 ft | 183 kts | 135° |
| 2026-04-26 15:56 | 54.47669 | 8.95020 | 7331 ft | 183 kts | 135° |
| 2026-04-26 15:56 | 54.46775 | 8.96576 | 7331 ft | 183 kts | 135° |
| 2026-04-26 15:56 | 54.45881 | 8.98133 | 7329 ft | 183 kts | 135° |
| 2026-04-26 15:57 | 54.44989 | 8.99684 | 7332 ft | 183 kts | 135° |
| 2026-04-26 15:57 | 54.44095 | 9.01235 | 7330 ft | 183 kts | 135° |
| 2026-04-26 15:57 | 54.43199 | 9.02789 | 7331 ft | 183 kts | 135° |
| 2026-04-26 15:57 | 54.42605 | 9.03817 | 7333 ft | 183 kts | 135° |
| 2026-04-26 15:58 | 54.41582 | 9.05600 | 7330 ft | 184 kts | 135° |
| 2026-04-26 15:58 | 54.40743 | 9.07053 | 7332 ft | 184 kts | 135° |
| 2026-04-26 15:58 | 54.39855 | 9.08628 | 7329 ft | 183 kts | 131° |
| 2026-04-26 15:58 | 54.39049 | 9.10318 | 7332 ft | 183 kts | 129° |
| 2026-04-26 15:59 | 54.38240 | 9.12001 | 7331 ft | 183 kts | 130° |
| 2026-04-26 15:59 | 54.37694 | 9.13108 | 7328 ft | 183 kts | 131° |
| 2026-04-26 15:59 | 54.36588 | 9.15331 | 7336 ft | 183 kts | 130° |
| 2026-04-26 15:59 | 54.35759 | 9.16998 | 7331 ft | 183 kts | 131° |
| 2026-04-26 16:00 | 54.34936 | 9.18662 | 7332 ft | 183 kts | 130° |
| 2026-04-26 16:00 | 54.34111 | 9.20322 | 7332 ft | 183 kts | 131° |
| 2026-04-26 16:00 | 54.33288 | 9.21981 | 7332 ft | 182 kts | 131° |
| 2026-04-26 16:00 | 54.32462 | 9.23630 | 7329 ft | 183 kts | 131° |
| 2026-04-26 16:01 | 54.31641 | 9.25288 | 7329 ft | 182 kts | 131° |
| 2026-04-26 16:01 | 54.30816 | 9.26941 | 7332 ft | 183 kts | 131° |
| 2026-04-26 16:01 | 54.30000 | 9.28582 | 7332 ft | 184 kts | 130° |
| 2026-04-26 16:01 | 54.29169 | 9.30248 | 7331 ft | 184 kts | 131° |
| 2026-04-26 16:02 | 54.28340 | 9.31909 | 7327 ft | 183 kts | 130° |
| 2026-04-26 16:02 | 54.27514 | 9.33562 | 7327 ft | 183 kts | 131° |
| 2026-04-26 16:02 | 54.26689 | 9.35212 | 7329 ft | 183 kts | 131° |
| 2026-04-26 16:02 | 54.26410 | 9.35769 | 7328 ft | 183 kts | 131° |
| 2026-04-26 16:03 | 54.25038 | 9.38516 | 7329 ft | 182 kts | 131° |
| 2026-04-26 16:03 | 54.24478 | 9.39628 | 7335 ft | 183 kts | 131° |
| 2026-04-26 16:03 | 54.23381 | 9.41821 | 7329 ft | 183 kts | 131° |
| 2026-04-26 16:03 | 54.22823 | 9.42936 | 7322 ft | 183 kts | 131° |
| 2026-04-26 16:04 | 54.21726 | 9.45121 | 7322 ft | 183 kts | 131° |
| 2026-04-26 16:04 | 54.21164 | 9.46233 | 7322 ft | 183 kts | 131° |
| 2026-04-26 16:04 | 54.20336 | 9.47885 | 7324 ft | 183 kts | 131° |
| 2026-04-26 16:04 | 54.19521 | 9.49515 | 7332 ft | 183 kts | 131° |
| 2026-04-26 16:05 | 54.18679 | 9.51181 | 7329 ft | 183 kts | 131° |
| 2026-04-26 16:05 | 54.17861 | 9.52810 | 7328 ft | 183 kts | 131° |
| 2026-04-26 16:05 | 54.17032 | 9.54448 | 7326 ft | 182 kts | 131° |
| 2026-04-26 16:05 | 54.16207 | 9.56092 | 7329 ft | 182 kts | 131° |
| 2026-04-26 16:06 | 54.15379 | 9.57732 | 7321 ft | 182 kts | 131° |
| 2026-04-26 16:06 | 54.14555 | 9.59368 | 7319 ft | 182 kts | 131° |
| 2026-04-26 16:06 | 54.13731 | 9.60998 | 7325 ft | 182 kts | 131° |
| 2026-04-26 16:06 | 54.12902 | 9.62643 | 7325 ft | 183 kts | 131° |
| 2026-04-26 16:07 | 54.12068 | 9.64287 | 7320 ft | 183 kts | 131° |
| 2026-04-26 16:07 | 54.11238 | 9.65926 | 7326 ft | 183 kts | 131° |
| 2026-04-26 16:07 | 54.10405 | 9.67571 | 7325 ft | 184 kts | 131° |
| 2026-04-26 16:07 | 54.09568 | 9.69222 | 7323 ft | 183 kts | 131° |
| 2026-04-26 16:08 | 54.08737 | 9.70860 | 7321 ft | 183 kts | 131° |
| 2026-04-26 16:08 | 54.07907 | 9.72501 | 7322 ft | 183 kts | 131° |
| 2026-04-26 16:08 | 54.07075 | 9.74136 | 7315 ft | 183 kts | 131° |
| 2026-04-26 16:08 | 54.06243 | 9.75775 | 7313 ft | 183 kts | 131° |
| 2026-04-26 16:09 | 54.05389 | 9.77452 | 7172 ft | 191 kts | 131° |
| 2026-04-26 16:09 | 54.04515 | 9.79178 | 7004 ft | 195 kts | 131° |
| 2026-04-26 16:09 | 54.03621 | 9.80928 | 6812 ft | 197 kts | 132° |
| 2026-04-26 16:09 | 54.03258 | 9.81637 | 6727 ft | 197 kts | 132° |
| 2026-04-26 16:10 | 54.02366 | 9.83390 | 6531 ft | 194 kts | 132° |
| 2026-04-26 16:10 | 54.01486 | 9.85116 | 6307 ft | 192 kts | 132° |
| 2026-04-26 16:10 | 54.00614 | 9.86827 | 6042 ft | 191 kts | 132° |
| 2026-04-26 16:10 | 53.99745 | 9.88528 | 5784 ft | 190 kts | 131° |
| 2026-04-26 16:11 | 53.98882 | 9.90216 | 5532 ft | 189 kts | 132° |
| 2026-04-26 16:11 | 53.98031 | 9.91879 | 5400 ft | 184 kts | 132° |
| 2026-04-26 16:11 | 53.97199 | 9.93505 | 5266 ft | 180 kts | 132° |
| 2026-04-26 16:11 | 53.96380 | 9.95102 | 5136 ft | 179 kts | 132° |
| 2026-04-26 16:12 | 53.95561 | 9.96704 | 5008 ft | 180 kts | 132° |
| 2026-04-26 16:12 | 53.94752 | 9.98284 | 4997 ft | 175 kts | 133° |
| 2026-04-26 16:12 | 53.93172 | 10.01362 | 4994 ft | 172 kts | 132° |
| 2026-04-26 16:13 | 53.92453 | 10.02763 | 4997 ft | 172 kts | 133° |
| 2026-04-26 16:13 | 53.91898 | 10.03838 | 4989 ft | 173 kts | 132° |
| 2026-04-26 16:13 | 53.91108 | 10.05378 | 4997 ft | 174 kts | 132° |
| 2026-04-26 16:13 | 53.90306 | 10.06933 | 5001 ft | 176 kts | 133° |
| 2026-04-26 16:14 | 53.89496 | 10.08502 | 4996 ft | 178 kts | 133° |
| 2026-04-26 16:14 | 53.88484 | 10.09624 | 4986 ft | 174 kts | 163° |
| 2026-04-26 16:14 | 53.86232 | 10.10925 | 5004 ft | 175 kts | 164° |
| 2026-04-26 16:15 | 53.85080 | 10.11583 | 5003 ft | 175 kts | 164° |
| 2026-04-26 16:15 | 53.83922 | 10.12241 | 4996 ft | 175 kts | 164° |
| 2026-04-26 16:15 | 53.82773 | 10.12894 | 4999 ft | 174 kts | 164° |
| 2026-04-26 16:16 | 53.81271 | 10.15749 | 4984 ft | 177 kts | 88° |
| 2026-04-26 16:16 | 53.81708 | 10.17592 | 4989 ft | 169 kts | 43° |
| 2026-04-26 16:16 | 53.82607 | 10.18845 | 5000 ft | 167 kts | 34° |
| 2026-04-26 16:16 | 53.83525 | 10.20070 | 5001 ft | 168 kts | 34° |
| 2026-04-26 16:17 | 53.84445 | 10.21293 | 5001 ft | 168 kts | 34° |
| 2026-04-26 16:17 | 53.85363 | 10.22520 | 5001 ft | 169 kts | 34° |
| 2026-04-26 16:17 | 53.86290 | 10.23741 | 4997 ft | 169 kts | 34° |
| 2026-04-26 16:17 | 53.87212 | 10.24967 | 5001 ft | 169 kts | 34° |
| 2026-04-26 16:18 | 53.88134 | 10.26202 | 4998 ft | 169 kts | 34° |
| 2026-04-26 16:18 | 53.89976 | 10.28683 | 4994 ft | 168 kts | 34° |
| 2026-04-26 16:19 | 53.91304 | 10.31140 | 4978 ft | 175 kts | 72° |
| 2026-04-26 16:19 | 53.91330 | 10.32344 | 4985 ft | 179 kts | 99° |
| 2026-04-26 16:19 | 53.89537 | 10.34679 | 4986 ft | 172 kts | 190° |
| 2026-04-26 16:20 | 53.88416 | 10.34125 | 5000 ft | 167 kts | 204° |
| 2026-04-26 16:20 | 53.86198 | 10.32820 | 5002 ft | 170 kts | 204° |
| 2026-04-26 16:20 | 53.85075 | 10.32153 | 4999 ft | 171 kts | 204° |
| 2026-04-26 16:21 | 53.83952 | 10.31492 | 4994 ft | 170 kts | 204° |
| 2026-04-26 16:21 | 53.82839 | 10.30827 | 4996 ft | 170 kts | 204° |
| 2026-04-26 16:21 | 53.81741 | 10.30178 | 4991 ft | 169 kts | 204° |
| 2026-04-26 16:21 | 53.80632 | 10.29518 | 4995 ft | 169 kts | 204° |
| 2026-04-26 16:22 | 53.79523 | 10.28853 | 4999 ft | 169 kts | 204° |
| 2026-04-26 16:22 | 53.78575 | 10.28292 | 4996 ft | 169 kts | 203° |
| 2026-04-26 16:22 | 53.77514 | 10.27486 | 4917 ft | 170 kts | 216° |
| 2026-04-26 16:22 | 53.76569 | 10.26245 | 4676 ft | 174 kts | 232° |
| 2026-04-26 16:23 | 53.75765 | 10.24680 | 4426 ft | 179 kts | 233° |
| 2026-04-26 16:23 | 53.74957 | 10.23111 | 4163 ft | 173 kts | 234° |
| 2026-04-26 16:23 | 53.74211 | 10.21563 | 3994 ft | 164 kts | 236° |
| 2026-04-26 16:23 | 53.73480 | 10.20067 | 3663 ft | 169 kts | 234° |
| 2026-04-26 16:24 | 53.72726 | 10.18519 | 3282 ft | 173 kts | 235° |
| 2026-04-26 16:24 | 53.71948 | 10.16957 | 2898 ft | 174 kts | 233° |
| 2026-04-26 16:24 | 53.71182 | 10.15385 | 2537 ft | 169 kts | 235° |
| 2026-04-26 16:24 | 53.70466 | 10.13918 | 2310 ft | 155 kts | 233° |
| 2026-04-26 16:25 | 53.69793 | 10.12574 | 2107 ft | 146 kts | 235° |
| 2026-04-26 16:25 | 53.69161 | 10.11266 | 1916 ft | 143 kts | 233° |
| 2026-04-26 16:25 | 53.68533 | 10.09993 | 1713 ft | 139 kts | 234° |
| 2026-04-26 16:25 | 53.67937 | 10.08792 | 1552 ft | 126 kts | 235° |
| 2026-04-26 16:26 | 53.67406 | 10.07700 | 1374 ft | 116 kts | 235° |
| 2026-04-26 16:26 | 53.67071 | 10.07023 | 1263 ft | 112 kts | 234° |
| 2026-04-26 16:26 | 53.66415 | 10.05693 | 1034 ft | 110 kts | 235° |
| 2026-04-26 16:26 | 53.66061 | 10.04973 | 903 ft | 109 kts | 234° |
| 2026-04-26 16:27 | 53.65710 | 10.04258 | 787 ft | 111 kts | 234° |
| 2026-04-26 16:27 | 53.65216 | 10.03253 | 625 ft | 109 kts | 235° |
| 2026-04-26 16:27 | 53.64772 | 10.02357 | 476 ft | 95 kts | 233° |
| 2026-04-26 16:27 | 53.64370 | 10.01536 | 344 ft | 85 kts | 233° |
| 2026-04-26 16:28 | 53.64004 | 10.00793 | 236 ft | 81 kts | 231° |
| 2026-04-26 16:28 | 53.63651 | 10.00065 | 134 ft | 80 kts | 232° |
| 2026-04-26 16:28 | 53.63320 | 9.99402 | 49 ft | 64 kts | 231° |
| 2026-04-26 16:28 | 53.63128 | 9.99009 | 49 ft | 26 kts | 230° |
| 2026-04-26 16:29 | 53.63086 | 9.99022 | 48 ft | 10 kts | 83° |
| 2026-04-26 16:29 | 53.63092 | 9.99156 | 47 ft | 13 kts | 95° |
| 2026-04-26 16:29 | 53.63089 | 9.99193 | 47 ft | 0 kts | 100° |
| 2026-04-26 16:29 | 53.63083 | 9.99286 | 47 ft | 16 kts | 90° |
| 2026-04-26 16:30 | 53.63090 | 9.99352 | 47 ft | 0 kts | 69° |
| 2026-04-26 16:33 | 53.63108 | 9.99419 | 47 ft | 17 kts | 59° |
| 2026-04-26 16:33 | 53.63186 | 9.99594 | 47 ft | 12 kts | 50° |
| 2026-04-26 16:34 | 53.63228 | 9.99718 | 47 ft | 13 kts | 96° |
| 2026-04-26 16:34 | 53.63161 | 9.99819 | 47 ft | 12 kts | 150° |
| 2026-04-26 16:34 | 53.63156 | 9.99823 | 47 ft | 0 kts | 150° |
| 2026-04-26 16:34 | 53.63136 | 9.99892 | 46 ft | 10 kts | 71° |
| 2026-04-26 16:35 | 53.63179 | 9.99938 | 47 ft | 7 kts | 348° |